Time;durP1;ratioP1;P1;durP2;ratioP2;P2;SDS_P1;SDS_P2;PMS_P1;PMS_P2;Temp;Humidity;BMP_temperature;BMP_pressure;BME280_temperature;BME280_humidity;BME280_pressure;Samples;Min_cycle;Max_cycle;Signal;HPM_P1;HPM_P2
2022/12/15 05:37:33;;;;;;;136.65;52.15;;;-1.20;99.90;;;;;;7625068;19;20366;-69
2022/12/15 05:40:06;;;;;;;126.00;54.37;;;-1.20;99.90;;;;;;7618885;19;20043;-70
2022/12/15 05:42:39;;;;;;;127.63;54.63;;;-1.20;99.90;;;;;;7590807;19;20646;-67
2022/12/15 05:45:11;;;;;;;130.75;57.30;;;-1.10;99.90;;;;;;7620295;19;20397;-68
2022/12/15 05:47:43;;;;;;;119.63;50.85;;;-1.00;99.90;;;;;;7616455;19;20474;-67
2022/12/15 05:50:15;;;;;;;122.15;52.78;;;-1.00;99.90;;;;;;7603232;19;20018;-68
2022/12/15 05:52:48;;;;;;;126.70;52.97;;;-0.90;99.90;;;;;;7629977;19;21164;-68
2022/12/15 05:55:21;;;;;;;121.05;49.10;;;-0.90;99.90;;;;;;7609768;19;22009;-67
2022/12/15 05:57:54;;;;;;;109.18;48.42;;;-0.80;99.90;;;;;;7624786;19;20122;-68
2022/12/15 06:00:26;;;;;;;115.72;46.60;;;-0.80;99.90;;;;;;7624264;19;20059;-67
2022/12/15 06:02:58;;;;;;;107.07;46.65;;;-0.80;99.90;;;;;;7607378;19;20374;-68
2022/12/15 06:05:30;;;;;;;106.27;46.73;;;-0.80;99.90;;;;;;7605330;19;21005;-70
2022/12/15 06:08:02;;;;;;;98.65;45.03;;;-0.80;99.90;;;;;;7610166;19;20502;-68
2022/12/15 06:10:35;;;;;;;96.68;44.53;;;-0.80;99.90;;;;;;7605124;19;20492;-67
2022/12/15 06:13:07;;;;;;;105.45;46.85;;;-0.70;99.90;;;;;;7593669;19;20014;-69
2022/12/15 06:15:40;;;;;;;104.80;47.35;;;-0.70;99.90;;;;;;7586755;19;20805;-68
2022/12/15 06:18:12;;;;;;;102.28;46.50;;;-0.70;99.90;;;;;;7596743;19;20433;-69
2022/12/15 06:20:45;;;;;;;105.75;46.33;;;-0.70;99.90;;;;;;7612628;19;21057;-68
2022/12/15 06:23:20;;;;;;;104.57;46.33;;;-0.60;99.90;;;;;;7605606;19;20043;-66
2022/12/15 06:25:54;;;;;;;99.80;44.60;;;-0.70;99.90;;;;;;7566017;19;20025;-67
2022/12/15 06:28:26;;;;;;;116.20;48.67;;;-0.60;99.90;;;;;;7569125;19;20018;-67
2022/12/15 06:31:01;;;;;;;107.18;47.35;;;-0.40;99.90;;;;;;7573591;19;20021;-68
2022/12/15 06:33:35;;;;;;;101.93;46.17;;;-0.40;99.90;;;;;;7562037;19;20440;-68
2022/12/15 06:36:10;;;;;;;;;;;-0.40;99.90;;;;;;7586226;19;20029;-69
2022/12/15 06:38:42;;;;;;;106.75;44.92;;;-0.40;99.90;;;;;;7614847;19;19922;-69
2022/12/15 06:41:18;;;;;;;97.40;43.83;;;-0.40;99.90;;;;;;7617786;19;20010;-68
2022/12/15 06:43:52;;;;;;;99.50;44.53;;;-0.40;99.90;;;;;;7636977;19;20040;-69
2022/12/15 06:46:26;;;;;;;103.00;45.17;;;-0.40;99.90;;;;;;7644946;19;20389;-68
2022/12/15 06:48:59;;;;;;;104.60;46.20;;;-0.40;99.90;;;;;;7612066;19;20022;-68
2022/12/15 06:51:31;;;;;;;108.10;49.35;;;-0.30;99.90;;;;;;7612969;19;20055;-68
2022/12/15 06:54:03;;;;;;;107.35;47.70;;;-0.40;99.90;;;;;;7607102;19;20101;-68
2022/12/15 06:56:35;;;;;;;102.00;46.35;;;-0.30;99.90;;;;;;7595156;19;20481;-69
2022/12/15 06:59:10;;;;;;;112.35;47.40;;;-0.30;99.90;;;;;;7598920;19;20019;-69
2022/12/15 07:01:42;;;;;;;112.80;48.45;;;-0.40;99.90;;;;;;7592977;19;20581;-68
2022/12/15 07:04:15;;;;;;;104.27;47.10;;;-0.30;99.90;;;;;;7588218;19;20015;-69
2022/12/15 07:06:48;;;;;;;108.10;47.72;;;-0.30;99.90;;;;;;7605969;19;20023;-69
2022/12/15 07:09:20;;;;;;;107.88;44.65;;;-0.40;99.90;;;;;;7602946;19;21054;-69
2022/12/15 07:11:53;;;;;;;152.63;62.78;;;-0.40;99.90;;;;;;7601845;19;20040;-69
2022/12/15 07:14:25;;;;;;;159.38;65.30;;;-0.40;99.90;;;;;;7602879;19;20015;-68
2022/12/15 07:16:57;;;;;;;124.70;54.00;;;-0.40;99.90;;;;;;7595421;19;20025;-70
2022/12/15 07:19:30;;;;;;;128.67;52.80;;;-0.40;99.90;;;;;;7601509;19;20704;-69
2022/12/15 07:22:02;;;;;;;109.93;46.70;;;-0.40;99.90;;;;;;7586698;19;20014;-70
2022/12/15 07:24:34;;;;;;;107.70;45.25;;;-0.50;99.90;;;;;;7593851;19;20014;-69
2022/12/15 07:27:06;;;;;;;102.53;45.28;;;-0.50;99.90;;;;;;7573507;19;20018;-69
2022/12/15 07:29:38;;;;;;;103.55;43.63;;;-0.50;99.90;;;;;;7580738;19;20096;-70
2022/12/15 07:32:11;;;;;;;102.80;45.00;;;-0.60;99.90;;;;;;7578652;19;21251;-69
2022/12/15 07:34:43;;;;;;;102.93;46.17;;;-0.50;99.90;;;;;;7580287;19;20023;-69
2022/12/15 07:37:16;;;;;;;100.07;45.50;;;-0.60;99.90;;;;;;7587096;19;21603;-70
2022/12/15 07:39:48;;;;;;;106.63;47.45;;;-0.60;99.90;;;;;;7583494;19;20014;-69
2022/12/15 07:42:20;;;;;;;102.93;46.40;;;-0.50;99.90;;;;;;7586999;19;20055;-70
2022/12/15 07:44:54;;;;;;;107.68;47.00;;;-0.50;99.90;;;;;;7580297;19;20018;-71
2022/12/15 07:47:26;;;;;;;105.22;45.35;;;-0.50;99.90;;;;;;7577722;19;20011;-69
2022/12/15 07:49:59;;;;;;;118.35;50.08;;;-0.50;99.90;;;;;;7580257;19;20892;-69
2022/12/15 07:52:31;;;;;;;117.72;48.63;;;-0.50;99.90;;;;;;7578932;19;20011;-69
2022/12/15 14:52:04;;;;;;;143.40;58.78;;;-0.80;99.90;;;;;;7579310;19;20371;-70
2022/12/15 14:54:49;;;;;;;140.43;55.72;;;-0.80;99.90;;;;;;7578013;19;20014;-67
2022/12/15 14:57:27;;;;;;;143.95;56.78;;;-0.80;99.90;;;;;;7544294;19;20499;-67
2022/12/15 14:59:59;;;;;;;137.80;57.03;;;-0.70;99.90;;;;;;7610038;19;20400;-68
2022/12/15 15:02:31;;;;;;;140.18;57.28;;;-0.70;99.90;;;;;;7623050;19;20379;-67
2022/12/15 15:05:19;;;;;;;136.93;55.42;;;-0.60;99.90;;;;;;7629720;19;20013;-68
2022/12/15 15:07:55;;;;;;;127.90;54.53;;;-0.60;99.90;;;;;;7622164;19;20035;-68
2022/12/15 15:10:28;;;;;;;132.82;56.25;;;-0.50;99.90;;;;;;7610331;19;21973;-68
2022/12/15 15:13:01;;;;;;;139.30;57.53;;;-0.40;99.90;;;;;;7613280;19;20022;-68
2022/12/15 15:15:33;;;;;;;124.47;55.20;;;-0.40;99.90;;;;;;7619385;19;20014;-68
2022/12/15 15:18:05;;;;;;;127.80;53.08;;;-0.30;99.90;;;;;;7625819;19;20889;-68
2022/12/15 15:20:37;;;;;;;133.00;55.13;;;-0.30;99.90;;;;;;7626784;19;20022;-67
2022/12/15 15:23:17;;;;;;;129.57;55.50;;;-0.20;99.90;;;;;;7625550;19;20589;-68
2022/12/15 15:25:55;;;;;;;114.85;50.85;;;-0.20;99.90;;;;;;7606639;19;21922;-69
2022/12/15 15:28:47;;;;;;;129.93;55.17;;;-0.10;99.90;;;;;;7636380;19;20022;-68
2022/12/15 15:31:37;;;;;;;115.70;49.60;;;0.00;99.90;;;;;;7620590;19;20520;-67
2022/12/15 15:34:13;;;;;;;104.87;47.40;;;0.00;99.90;;;;;;7629157;19;20101;-67
2022/12/15 15:36:46;;;;;;;118.72;53.38;;;0.10;99.90;;;;;;7601960;19;20324;-67
2022/12/15 15:39:20;;;;;;;125.28;53.72;;;0.10;99.90;;;;;;7622647;19;20708;-68
2022/12/15 15:41:52;;;;;;;121.47;53.00;;;0.00;99.90;;;;;;7617525;19;21781;-68
2022/12/15 15:44:26;;;;;;;124.55;53.80;;;0.10;99.90;;;;;;7614426;19;20014;-67
2022/12/15 15:46:58;;;;;;;;;;;0.10;99.90;;;;;;7615894;19;20022;-68
2022/12/15 15:49:31;;;;;;;130.85;52.55;;;0.10;99.90;;;;;;7619309;19;19927;-68
2022/12/15 15:52:12;;;;;;;130.93;54.45;;;0.10;99.90;;;;;;7621977;19;20061;-68
2022/12/15 15:54:44;;;;;;;;;;;0.00;99.90;;;;;;7633424;19;20012;-67
2022/12/15 15:57:17;;;;;;;130.90;49.10;;;0.00;99.90;;;;;;7605811;19;19998;-66
2022/12/15 15:59:49;;;;;;;150.93;48.17;;;0.00;99.90;;;;;;7620450;19;20056;-67
2022/12/15 16:02:22;;;;;;;155.10;53.65;;;0.00;99.90;;;;;;7599747;19;20018;-67
2022/12/15 16:04:54;;;;;;;150.18;53.10;;;0.00;99.90;;;;;;7592879;19;20334;-66
2022/12/15 16:07:27;;;;;;;152.13;50.50;;;0.00;99.90;;;;;;7572910;19;20367;-68
2022/12/15 16:10:00;;;;;;;146.20;50.03;;;0.00;99.90;;;;;;7599671;19;20861;-67
2022/12/15 16:12:41;;;;;;;151.10;50.80;;;0.00;99.90;;;;;;7579281;19;20026;-68
2022/12/15 16:15:22;;;;;;;173.82;51.35;;;-0.10;99.90;;;;;;7587838;19;20086;-68
2022/12/15 16:17:54;;;;;;;147.80;51.70;;;0.00;99.90;;;;;;7580746;19;20010;-67
2022/12/15 16:20:28;;;;;;;173.20;55.97;;;-0.10;99.90;;;;;;7589254;19;20482;-67
2022/12/15 16:23:04;;;;;;;159.38;58.55;;;0.00;99.90;;;;;;7597302;19;20361;-67
2022/12/15 16:25:42;;;;;;;142.90;57.60;;;0.00;99.90;;;;;;7590351;19;20029;-67
2022/12/15 16:28:24;;;;;;;144.40;57.50;;;0.00;99.90;;;;;;7598039;19;20358;-66
2022/12/15 16:30:57;;;;;;;150.65;58.85;;;0.00;99.90;;;;;;7589213;19;20018;-69
2022/12/15 16:33:30;;;;;;;;;;;0.00;99.90;;;;;;7592341;19;20018;-67
2022/12/15 16:36:11;;;;;;;148.68;57.95;;;-0.10;99.90;;;;;;7585352;19;19923;-66
2022/12/15 16:38:43;;;;;;;150.23;56.20;;;-0.10;99.90;;;;;;7586949;19;20021;-69
2022/12/15 16:41:16;;;;;;;149.30;58.38;;;-0.10;99.90;;;;;;7584766;19;20018;-68
2022/12/15 16:43:49;;;;;;;158.02;59.63;;;-0.10;99.90;;;;;;7602503;19;20784;-68
2022/12/15 16:46:21;;;;;;;154.10;62.57;;;-0.20;99.90;;;;;;7596171;19;20060;-66
2022/12/15 16:48:53;;;;;;;143.45;56.97;;;-0.10;99.90;;;;;;7601426;19;20010;-67
2022/12/15 16:51:33;;;;;;;148.87;55.93;;;-0.20;99.90;;;;;;7581100;19;20640;-67
2022/12/15 16:54:11;;;;;;;162.40;60.78;;;-0.10;99.90;;;;;;7574993;19;21233;-68
2022/12/15 16:56:43;;;;;;;157.43;57.28;;;-0.20;99.90;;;;;;7588326;19;20029;-69
2022/12/15 16:59:17;;;;;;;144.13;56.97;;;-0.10;99.90;;;;;;7580636;19;20020;-67
2022/12/15 17:02:27;;;;;;;155.40;58.33;;;-0.10;99.90;;;;;;7571973;19;20021;-67
2022/12/15 17:05:00;;;;;;;155.20;58.28;;;-0.10;99.90;;;;;;7607742;19;20101;-67
2022/12/15 17:07:32;;;;;;;151.48;58.70;;;-0.10;99.90;;;;;;7610706;19;20014;-67
2022/12/15 17:10:05;;;;;;;155.93;58.53;;;-0.10;99.90;;;;;;7611869;19;20026;-69
2022/12/15 17:12:37;;;;;;;153.88;58.65;;;-0.10;99.90;;;;;;7604128;19;20018;-66
2022/12/15 17:15:21;;;;;;;150.18;57.42;;;-0.20;99.90;;;;;;7606566;19;20014;-67
2022/12/15 17:17:54;;;;;;;159.40;61.42;;;-0.10;99.90;;;;;;7607964;19;20749;-67
2022/12/15 17:20:28;;;;;;;152.57;59.38;;;-0.10;99.90;;;;;;7616837;19;20105;-67
2022/12/15 17:23:12;;;;;;;151.77;57.75;;;-0.10;99.90;;;;;;7609261;19;20021;-66
2022/12/15 17:25:46;;;;;;;163.90;62.30;;;-0.10;99.90;;;;;;7607984;19;20070;-67
2022/12/15 17:28:39;;;;;;;150.68;58.05;;;-0.20;99.90;;;;;;7597227;19;20011;-67
2022/12/15 17:31:22;;;;;;;149.93;60.40;;;-0.10;99.90;;;;;;7609805;19;20018;-70
2022/12/15 17:33:55;;;;;;;167.77;61.45;;;-0.20;99.90;;;;;;7605750;19;20018;-70
2022/12/15 17:36:27;;;;;;;159.45;57.47;;;-0.20;99.90;;;;;;7610667;19;20046;-69
2022/12/15 17:39:00;;;;;;;160.13;61.08;;;-0.20;99.90;;;;;;7609705;19;20022;-68
2022/12/15 17:41:32;;;;;;;161.02;60.05;;;-0.10;99.90;;;;;;7608284;19;20101;-68
2022/12/15 17:44:27;;;;;;;145.25;56.35;;;-0.10;99.90;;;;;;7611312;19;20010;-69
2022/12/15 17:47:06;;;;;;;164.13;60.08;;;-0.10;99.90;;;;;;7602733;19;21036;-69
2022/12/15 17:49:40;;;;;;;153.50;57.92;;;-0.10;99.90;;;;;;7609475;19;20408;-68
2022/12/15 17:52:28;;;;;;;151.97;56.87;;;-0.20;99.90;;;;;;7610125;19;20811;-69
2022/12/15 17:55:02;;;;;;;158.85;61.17;;;-0.20;99.90;;;;;;7603885;19;20855;-69
2022/12/15 17:57:34;;;;;;;166.45;60.72;;;-0.10;99.90;;;;;;7602128;19;20596;-69
2022/12/15 18:00:18;;;;;;;174.32;63.28;;;-0.10;99.90;;;;;;7600587;19;20806;-68
2022/12/15 18:02:50;;;;;;;;;;;-0.20;99.90;;;;;;7603680;19;20015;-66
2022/12/15 18:05:25;;;;;;;163.65;50.72;;;-0.10;99.90;;;;;;7601345;19;19959;-69
2022/12/15 18:08:01;;;;;;;202.55;53.25;;;-0.10;99.90;;;;;;7603498;19;20011;-69
2022/12/15 18:10:38;;;;;;;224.00;61.83;;;-0.10;99.90;;;;;;7610432;19;20025;-68
2022/12/15 18:13:28;;;;;;;190.88;57.25;;;-0.20;99.90;;;;;;7604148;19;20078;-69
2022/12/15 18:16:06;;;;;;;205.73;59.70;;;-0.20;99.90;;;;;;7602765;19;20023;-68
2022/12/15 18:18:39;;;;;;;225.50;61.63;;;-0.20;99.90;;;;;;7608397;19;20379;-69
2022/12/15 18:21:14;;;;;;;187.50;57.33;;;-0.20;99.90;;;;;;7611119;19;20026;-69
2022/12/15 18:23:46;;;;;;;213.80;62.25;;;-0.20;99.90;;;;;;7603757;19;20014;-69
2022/12/15 18:26:18;;;;;;;184.10;56.95;;;-0.20;99.90;;;;;;7605431;19;20114;-69
2022/12/15 18:28:50;;;;;;;205.23;56.28;;;-0.20;99.90;;;;;;7600777;19;20015;-69
2022/12/15 18:31:27;;;;;;;209.23;60.22;;;-0.20;99.90;;;;;;7614806;19;20498;-68
2022/12/15 18:34:00;;;;;;;238.70;83.57;;;-0.30;99.90;;;;;;7611231;19;20940;-68
2022/12/15 18:36:35;;;;;;;192.23;57.22;;;-0.20;99.90;;;;;;7608905;19;20018;-68
2022/12/15 18:39:19;;;;;;;202.23;72.40;;;-0.20;99.90;;;;;;7608532;19;20485;-69
2022/12/15 18:41:55;;;;;;;191.73;63.13;;;-0.30;99.90;;;;;;7602562;19;20688;-69
2022/12/15 18:44:30;;;;;;;220.50;62.30;;;-0.20;99.90;;;;;;7609152;19;20022;-69
2022/12/15 18:47:10;;;;;;;201.02;62.63;;;-0.20;99.90;;;;;;7605570;19;20018;-69
2022/12/15 18:49:42;;;;;;;205.77;60.45;;;-0.20;99.90;;;;;;7602233;19;20971;-69
2022/12/15 18:52:18;;;;;;;224.88;70.53;;;-0.10;99.90;;;;;;7611316;19;20014;-69
2022/12/15 18:54:52;;;;;;;225.40;60.38;;;-0.10;99.90;;;;;;7602238;19;20014;-68
2022/12/15 18:57:31;;;;;;;230.80;63.60;;;-0.10;99.90;;;;;;7611246;19;20034;-69
2022/12/15 19:00:16;;;;;;;276.63;70.28;;;-0.20;99.90;;;;;;7608880;19;20018;-70
2022/12/15 19:02:48;;;;;;;243.63;62.83;;;-0.20;99.90;;;;;;7605428;19;20025;-69
2022/12/15 19:05:31;;;;;;;286.90;68.65;;;-0.20;99.90;;;;;;7611092;19;20986;-70
2022/12/15 19:08:25;;;;;;;239.48;60.42;;;-0.30;99.90;;;;;;7536121;19;20044;-68
2022/12/15 19:11:04;;;;;;;249.43;69.78;;;-0.20;99.90;;;;;;7547020;19;20010;-69
2022/12/15 19:13:38;;;;;;;273.73;70.47;;;-0.20;99.90;;;;;;7576572;19;20029;-68
2022/12/15 19:16:16;;;;;;;264.30;73.15;;;-0.20;99.90;;;;;;7571998;19;20022;-69
2022/12/15 19:24:52;;;;;;;286.70;76.93;;;-0.30;99.90;;;;;;7582394;19;20023;-68
2022/12/15 19:27:25;;;;;;;308.58;77.47;;;-0.20;99.90;;;;;;7569334;19;20015;-69
2022/12/15 19:29:57;;;;;;;292.80;82.10;;;-0.30;99.90;;;;;;7573821;19;20018;-69
2022/12/15 19:32:29;;;;;;;310.60;80.18;;;-0.20;99.90;;;;;;7551156;19;20041;-69
2022/12/15 19:35:02;;;;;;;271.08;69.03;;;-0.20;99.90;;;;;;7565661;19;20014;-69
2022/12/15 19:37:35;;;;;;;296.50;74.18;;;-0.20;99.90;;;;;;7541347;19;20093;-68
2022/12/15 19:40:20;;;;;;;272.90;70.07;;;-0.20;99.90;;;;;;7586641;19;20024;-68
2022/12/15 19:42:53;;;;;;;293.58;84.07;;;-0.20;99.90;;;;;;7586513;19;20015;-69
2022/12/15 19:45:30;;;;;;;227.48;65.05;;;-0.20;99.90;;;;;;7598570;19;20568;-68
2022/12/15 19:48:02;;;;;;;258.45;71.65;;;-0.20;99.90;;;;;;7593141;19;20014;-68
2022/12/15 19:50:36;;;;;;;262.45;83.13;;;-0.10;99.90;;;;;;7581622;19;20665;-68
